sensor_id;sensor_type;location;lat;lon;timestamp;P1;durP1;ratioP1;P2;durP2;ratioP2
46719;SDS011;32452;51.382;-0.002;2023-04-29T00:00:49;29.50;;;19.27;;
46719;SDS011;32452;51.382;-0.002;2023-04-29T00:03:36;27.23;;;18.35;;
46719;SDS011;32452;51.382;-0.002;2023-04-29T00:06:23;32.25;;;19.42;;
46719;SDS011;32452;51.382;-0.002;2023-04-29T00:09:10;28.50;;;17.20;;
46719;SDS011;32452;51.382;-0.002;2023-04-29T00:12:32;29.05;;;19.25;;
46719;SDS011;32452;51.382;-0.002;2023-04-29T00:16:19;30.38;;;19.38;;
46719;SDS011;32452;51.382;-0.002;2023-04-29T00:19:50;31.75;;;19.98;;
46719;SDS011;32452;51.382;-0.002;2023-04-29T00:26:04;30.38;;;19.00;;
46719;SDS011;32452;51.382;-0.002;2023-04-29T00:28:53;30.85;;;19.48;;
46719;SDS011;32452;51.382;-0.002;2023-04-29T00:32:26;32.17;;;17.92;;
46719;SDS011;32452;51.382;-0.002;2023-04-29T00:35:37;29.52;;;18.70;;
46719;SDS011;32452;51.382;-0.002;2023-04-29T00:38:23;28.55;;;18.77;;
46719;SDS011;32452;51.382;-0.002;2023-04-29T00:41:09;28.45;;;18.15;;
46719;SDS011;32452;51.382;-0.002;2023-04-29T00:43:55;28.52;;;18.10;;
46719;SDS011;32452;51.382;-0.002;2023-04-29T00:46:40;30.38;;;19.17;;
46719;SDS011;32452;51.382;-0.002;2023-04-29T00:49:26;28.15;;;18.08;;
46719;SDS011;32452;51.382;-0.002;2023-04-29T00:52:12;28.90;;;18.88;;
46719;SDS011;32452;51.382;-0.002;2023-04-29T00:54:59;30.98;;;19.88;;
46719;SDS011;32452;51.382;-0.002;2023-04-29T00:57:45;27.20;;;18.58;;
46719;SDS011;32452;51.382;-0.002;2023-04-29T01:00:32;32.47;;;18.95;;
46719;SDS011;32452;51.382;-0.002;2023-04-29T01:03:19;29.42;;;18.38;;
46719;SDS011;32452;51.382;-0.002;2023-04-29T01:06:19;29.42;;;19.35;;
46719;SDS011;32452;51.382;-0.002;2023-04-29T01:15:27;30.35;;;18.40;;
46719;SDS011;32452;51.382;-0.002;2023-04-29T01:18:28;32.53;;;20.42;;
46719;SDS011;32452;51.382;-0.002;2023-04-29T01:21:17;30.77;;;18.83;;
46719;SDS011;32452;51.382;-0.002;2023-04-29T01:24:04;32.97;;;19.60;;
46719;SDS011;32452;51.382;-0.002;2023-04-29T01:26:55;28.40;;;17.13;;
46719;SDS011;32452;51.382;-0.002;2023-04-29T01:39:31;27.85;;;17.30;;
46719;SDS011;32452;51.382;-0.002;2023-04-29T01:45:45;26.73;;;16.67;;
46719;SDS011;32452;51.382;-0.002;2023-04-29T01:48:31;26.75;;;16.88;;
46719;SDS011;32452;51.382;-0.002;2023-04-29T01:51:16;32.08;;;19.45;;
46719;SDS011;32452;51.382;-0.002;2023-04-29T01:54:02;29.45;;;16.90;;
46719;SDS011;32452;51.382;-0.002;2023-04-29T01:56:48;29.48;;;18.50;;
46719;SDS011;32452;51.382;-0.002;2023-04-29T01:59:35;31.40;;;18.48;;
46719;SDS011;32452;51.382;-0.002;2023-04-29T02:02:21;30.90;;;19.08;;
46719;SDS011;32452;51.382;-0.002;2023-04-29T02:05:07;31.02;;;18.75;;
46719;SDS011;32452;51.382;-0.002;2023-04-29T02:07:53;35.08;;;19.58;;
46719;SDS011;32452;51.382;-0.002;2023-04-29T02:10:39;31.27;;;19.10;;
46719;SDS011;32452;51.382;-0.002;2023-04-29T02:13:24;30.52;;;18.08;;
46719;SDS011;32452;51.382;-0.002;2023-04-29T02:16:11;35.83;;;18.90;;
46719;SDS011;32452;51.382;-0.002;2023-04-29T02:18:58;32.78;;;19.92;;
46719;SDS011;32452;51.382;-0.002;2023-04-29T02:21:44;33.65;;;19.83;;
46719;SDS011;32452;51.382;-0.002;2023-04-29T02:24:29;32.67;;;20.02;;
46719;SDS011;32452;51.382;-0.002;2023-04-29T02:27:14;37.90;;;20.88;;
46719;SDS011;32452;51.382;-0.002;2023-04-29T02:30:00;39.25;;;22.50;;
46719;SDS011;32452;51.382;-0.002;2023-04-29T02:32:46;31.75;;;19.33;;
46719;SDS011;32452;51.382;-0.002;2023-04-29T02:35:32;33.35;;;18.88;;
46719;SDS011;32452;51.382;-0.002;2023-04-29T02:38:17;30.80;;;18.90;;
46719;SDS011;32452;51.382;-0.002;2023-04-29T02:41:03;34.17;;;20.40;;
46719;SDS011;32452;51.382;-0.002;2023-04-29T02:43:48;32.00;;;18.73;;
46719;SDS011;32452;51.382;-0.002;2023-04-29T02:46:33;32.78;;;19.75;;
46719;SDS011;32452;51.382;-0.002;2023-04-29T02:49:19;33.45;;;18.88;;
46719;SDS011;32452;51.382;-0.002;2023-04-29T02:52:05;35.47;;;20.40;;
46719;SDS011;32452;51.382;-0.002;2023-04-29T02:54:50;32.38;;;19.65;;
46719;SDS011;32452;51.382;-0.002;2023-04-29T02:57:36;29.73;;;18.65;;
46719;SDS011;32452;51.382;-0.002;2023-04-29T03:00:22;30.60;;;17.23;;
46719;SDS011;32452;51.382;-0.002;2023-04-29T03:03:08;27.98;;;17.23;;
46719;SDS011;32452;51.382;-0.002;2023-04-29T03:05:54;32.38;;;19.10;;
46719;SDS011;32452;51.382;-0.002;2023-04-29T03:08:40;26.90;;;16.30;;
46719;SDS011;32452;51.382;-0.002;2023-04-29T03:11:25;34.97;;;18.02;;
46719;SDS011;32452;51.382;-0.002;2023-04-29T03:14:11;28.85;;;17.60;;
46719;SDS011;32452;51.382;-0.002;2023-04-29T03:16:56;29.88;;;19.10;;
46719;SDS011;32452;51.382;-0.002;2023-04-29T03:19:42;31.83;;;18.40;;
46719;SDS011;32452;51.382;-0.002;2023-04-29T03:22:28;32.00;;;18.67;;
46719;SDS011;32452;51.382;-0.002;2023-04-29T03:25:14;31.63;;;18.70;;
46719;SDS011;32452;51.382;-0.002;2023-04-29T03:28:00;33.90;;;19.05;;
46719;SDS011;32452;51.382;-0.002;2023-04-29T03:30:45;32.97;;;18.80;;
46719;SDS011;32452;51.382;-0.002;2023-04-29T03:33:31;32.17;;;18.00;;
46719;SDS011;32452;51.382;-0.002;2023-04-29T03:36:16;39.22;;;20.45;;
46719;SDS011;32452;51.382;-0.002;2023-04-29T03:39:02;36.72;;;19.95;;
46719;SDS011;32452;51.382;-0.002;2023-04-29T03:41:48;36.03;;;20.25;;
46719;SDS011;32452;51.382;-0.002;2023-04-29T03:44:34;30.80;;;18.38;;
46719;SDS011;32452;51.382;-0.002;2023-04-29T03:47:20;34.65;;;19.08;;
46719;SDS011;32452;51.382;-0.002;2023-04-29T03:50:06;31.98;;;18.98;;
46719;SDS011;32452;51.382;-0.002;2023-04-29T03:52:52;33.72;;;19.17;;
46719;SDS011;32452;51.382;-0.002;2023-04-29T03:55:37;33.65;;;18.92;;
46719;SDS011;32452;51.382;-0.002;2023-04-29T03:58:22;32.75;;;19.48;;
46719;SDS011;32452;51.382;-0.002;2023-04-29T04:01:08;31.85;;;18.77;;
46719;SDS011;32452;51.382;-0.002;2023-04-29T04:03:54;32.08;;;19.27;;
46719;SDS011;32452;51.382;-0.002;2023-04-29T04:06:39;34.40;;;20.02;;
46719;SDS011;32452;51.382;-0.002;2023-04-29T04:09:25;36.72;;;18.95;;
46719;SDS011;32452;51.382;-0.002;2023-04-29T04:12:10;38.35;;;21.05;;
46719;SDS011;32452;51.382;-0.002;2023-04-29T04:14:56;34.60;;;19.63;;
46719;SDS011;32452;51.382;-0.002;2023-04-29T04:17:43;35.00;;;19.42;;
46719;SDS011;32452;51.382;-0.002;2023-04-29T04:20:29;41.38;;;21.52;;
46719;SDS011;32452;51.382;-0.002;2023-04-29T04:23:14;36.05;;;20.08;;
46719;SDS011;32452;51.382;-0.002;2023-04-29T04:26:00;34.22;;;20.10;;
46719;SDS011;32452;51.382;-0.002;2023-04-29T04:28:46;35.33;;;19.15;;
46719;SDS011;32452;51.382;-0.002;2023-04-29T04:31:32;34.72;;;20.23;;
46719;SDS011;32452;51.382;-0.002;2023-04-29T04:34:18;35.92;;;18.98;;
46719;SDS011;32452;51.382;-0.002;2023-04-29T04:37:04;35.50;;;19.73;;
46719;SDS011;32452;51.382;-0.002;2023-04-29T04:39:50;34.33;;;19.00;;
46719;SDS011;32452;51.382;-0.002;2023-04-29T04:42:36;40.15;;;21.60;;
46719;SDS011;32452;51.382;-0.002;2023-04-29T04:45:22;36.13;;;20.00;;
46719;SDS011;32452;51.382;-0.002;2023-04-29T04:48:07;34.03;;;19.63;;
46719;SDS011;32452;51.382;-0.002;2023-04-29T04:50:53;36.45;;;20.50;;
46719;SDS011;32452;51.382;-0.002;2023-04-29T04:53:39;34.55;;;19.55;;
46719;SDS011;32452;51.382;-0.002;2023-04-29T04:56:25;39.85;;;21.70;;
46719;SDS011;32452;51.382;-0.002;2023-04-29T04:59:11;42.42;;;21.60;;
46719;SDS011;32452;51.382;-0.002;2023-04-29T05:01:56;36.33;;;20.17;;
46719;SDS011;32452;51.382;-0.002;2023-04-29T05:04:42;39.00;;;20.85;;
46719;SDS011;32452;51.382;-0.002;2023-04-29T05:07:28;40.25;;;20.20;;
46719;SDS011;32452;51.382;-0.002;2023-04-29T05:10:14;37.88;;;20.35;;
46719;SDS011;32452;51.382;-0.002;2023-04-29T05:12:59;36.05;;;19.65;;
46719;SDS011;32452;51.382;-0.002;2023-04-29T05:15:44;37.60;;;21.13;;
46719;SDS011;32452;51.382;-0.002;2023-04-29T05:18:30;35.83;;;19.58;;
46719;SDS011;32452;51.382;-0.002;2023-04-29T05:21:15;37.75;;;20.48;;
46719;SDS011;32452;51.382;-0.002;2023-04-29T05:24:01;34.65;;;19.15;;
46719;SDS011;32452;51.382;-0.002;2023-04-29T05:26:47;41.05;;;19.60;;
46719;SDS011;32452;51.382;-0.002;2023-04-29T05:29:35;35.53;;;19.95;;
46719;SDS011;32452;51.382;-0.002;2023-04-29T05:32:22;36.08;;;19.05;;
46719;SDS011;32452;51.382;-0.002;2023-04-29T05:35:10;34.28;;;19.52;;
46719;SDS011;32452;51.382;-0.002;2023-04-29T05:38:11;34.83;;;21.27;;
46719;SDS011;32452;51.382;-0.002;2023-04-29T05:41:04;33.33;;;18.13;;
46719;SDS011;32452;51.382;-0.002;2023-04-29T05:44:21;33.35;;;19.17;;
46719;SDS011;32452;51.382;-0.002;2023-04-29T05:47:22;30.90;;;17.42;;
46719;SDS011;32452;51.382;-0.002;2023-04-29T05:50:22;29.85;;;18.10;;
46719;SDS011;32452;51.382;-0.002;2023-04-29T05:53:20;32.40;;;17.70;;
46719;SDS011;32452;51.382;-0.002;2023-04-29T05:56:32;29.08;;;15.63;;
46719;SDS011;32452;51.382;-0.002;2023-04-29T05:59:19;32.40;;;17.60;;
46719;SDS011;32452;51.382;-0.002;2023-04-29T06:02:16;29.33;;;16.38;;
46719;SDS011;32452;51.382;-0.002;2023-04-29T06:05:09;29.77;;;18.27;;
46719;SDS011;32452;51.382;-0.002;2023-04-29T06:08:04;32.83;;;17.38;;
46719;SDS011;32452;51.382;-0.002;2023-04-29T06:11:01;33.85;;;18.77;;
46719;SDS011;32452;51.382;-0.002;2023-04-29T06:13:57;29.80;;;17.08;;
46719;SDS011;32452;51.382;-0.002;2023-04-29T06:16:52;29.77;;;17.77;;
46719;SDS011;32452;51.382;-0.002;2023-04-29T06:19:39;37.05;;;18.98;;
46719;SDS011;32452;51.382;-0.002;2023-04-29T06:22:35;33.45;;;17.60;;
46719;SDS011;32452;51.382;-0.002;2023-04-29T06:25:47;31.92;;;18.05;;
46719;SDS011;32452;51.382;-0.002;2023-04-29T06:28:37;34.45;;;18.27;;
46719;SDS011;32452;51.382;-0.002;2023-04-29T06:31:52;31.23;;;17.92;;
46719;SDS011;32452;51.382;-0.002;2023-04-29T06:34:41;29.20;;;16.83;;
46719;SDS011;32452;51.382;-0.002;2023-04-29T06:37:41;30.92;;;17.67;;
46719;SDS011;32452;51.382;-0.002;2023-04-29T06:40:41;34.10;;;18.75;;
46719;SDS011;32452;51.382;-0.002;2023-04-29T06:43:27;31.92;;;17.73;;
46719;SDS011;32452;51.382;-0.002;2023-04-29T06:46:17;29.40;;;16.55;;
46719;SDS011;32452;51.382;-0.002;2023-04-29T06:49:17;29.50;;;16.35;;
46719;SDS011;32452;51.382;-0.002;2023-04-29T06:52:04;29.77;;;15.73;;
46719;SDS011;32452;51.382;-0.002;2023-04-29T06:54:50;29.08;;;15.38;;
46719;SDS011;32452;51.382;-0.002;2023-04-29T06:57:37;29.02;;;15.13;;
46719;SDS011;32452;51.382;-0.002;2023-04-29T07:00:35;25.92;;;14.13;;
46719;SDS011;32452;51.382;-0.002;2023-04-29T07:03:29;25.48;;;12.82;;
46719;SDS011;32452;51.382;-0.002;2023-04-29T07:06:17;22.08;;;12.57;;
46719;SDS011;32452;51.382;-0.002;2023-04-29T07:10:02;24.17;;;13.82;;
46719;SDS011;32452;51.382;-0.002;2023-04-29T07:13:01;24.50;;;12.73;;
46719;SDS011;32452;51.382;-0.002;2023-04-29T07:16:19;25.88;;;13.85;;
46719;SDS011;32452;51.382;-0.002;2023-04-29T07:19:11;25.63;;;13.27;;
46719;SDS011;32452;51.382;-0.002;2023-04-29T07:22:17;27.35;;;14.00;;
46719;SDS011;32452;51.382;-0.002;2023-04-29T07:25:26;21.92;;;12.57;;
46719;SDS011;32452;51.382;-0.002;2023-04-29T07:28:33;23.15;;;13.45;;
46719;SDS011;32452;51.382;-0.002;2023-04-29T07:31:19;24.35;;;12.50;;
46719;SDS011;32452;51.382;-0.002;2023-04-29T07:34:09;20.73;;;11.57;;
46719;SDS011;32452;51.382;-0.002;2023-04-29T07:36:59;21.17;;;10.60;;
46719;SDS011;32452;51.382;-0.002;2023-04-29T07:39:44;18.35;;;10.02;;
46719;SDS011;32452;51.382;-0.002;2023-04-29T07:42:32;22.23;;;10.25;;
46719;SDS011;32452;51.382;-0.002;2023-04-29T07:45:24;21.33;;;11.25;;
46719;SDS011;32452;51.382;-0.002;2023-04-29T07:48:15;18.13;;;9.77;;
46719;SDS011;32452;51.382;-0.002;2023-04-29T07:51:01;18.80;;;10.70;;
46719;SDS011;32452;51.382;-0.002;2023-04-29T07:53:47;18.70;;;10.38;;
46719;SDS011;32452;51.382;-0.002;2023-04-29T07:56:33;17.63;;;9.93;;
46719;SDS011;32452;51.382;-0.002;2023-04-29T07:59:18;14.18;;;8.68;;
46719;SDS011;32452;51.382;-0.002;2023-04-29T08:02:04;18.25;;;10.30;;
46719;SDS011;32452;51.382;-0.002;2023-04-29T08:04:50;15.85;;;9.18;;
46719;SDS011;32452;51.382;-0.002;2023-04-29T08:07:36;16.85;;;9.85;;
46719;SDS011;32452;51.382;-0.002;2023-04-29T08:10:22;16.23;;;9.48;;
46719;SDS011;32452;51.382;-0.002;2023-04-29T08:13:07;16.35;;;9.50;;
46719;SDS011;32452;51.382;-0.002;2023-04-29T08:15:53;22.80;;;12.25;;
46719;SDS011;32452;51.382;-0.002;2023-04-29T08:18:39;16.65;;;9.82;;
46719;SDS011;32452;51.382;-0.002;2023-04-29T08:21:24;14.98;;;9.15;;
46719;SDS011;32452;51.382;-0.002;2023-04-29T08:24:11;13.13;;;7.88;;
46719;SDS011;32452;51.382;-0.002;2023-04-29T08:26:57;12.63;;;7.25;;
46719;SDS011;32452;51.382;-0.002;2023-04-29T08:29:43;12.85;;;7.43;;
46719;SDS011;32452;51.382;-0.002;2023-04-29T08:32:28;14.75;;;8.45;;
46719;SDS011;32452;51.382;-0.002;2023-04-29T08:35:14;14.30;;;7.45;;
46719;SDS011;32452;51.382;-0.002;2023-04-29T08:37:59;13.80;;;7.93;;
46719;SDS011;32452;51.382;-0.002;2023-04-29T08:40:45;10.15;;;6.50;;
46719;SDS011;32452;51.382;-0.002;2023-04-29T08:43:31;12.32;;;7.63;;
46719;SDS011;32452;51.382;-0.002;2023-04-29T08:46:22;13.32;;;7.75;;
46719;SDS011;32452;51.382;-0.002;2023-04-29T08:49:10;12.93;;;8.13;;
46719;SDS011;32452;51.382;-0.002;2023-04-29T08:51:56;12.38;;;7.50;;
46719;SDS011;32452;51.382;-0.002;2023-04-29T08:54:42;11.45;;;7.07;;
46719;SDS011;32452;51.382;-0.002;2023-04-29T08:57:28;11.90;;;6.75;;
46719;SDS011;32452;51.382;-0.002;2023-04-29T09:00:23;12.75;;;7.30;;
46719;SDS011;32452;51.382;-0.002;2023-04-29T09:03:53;11.52;;;6.75;;
46719;SDS011;32452;51.382;-0.002;2023-04-29T09:06:21;10.63;;;6.30;;
46719;SDS011;32452;51.382;-0.002;2023-04-29T09:09:10;11.48;;;5.72;;
46719;SDS011;32452;51.382;-0.002;2023-04-29T09:11:58;8.95;;;5.32;;
46719;SDS011;32452;51.382;-0.002;2023-04-29T09:14:44;11.40;;;6.20;;
46719;SDS011;32452;51.382;-0.002;2023-04-29T09:20:26;9.77;;;5.65;;
46719;SDS011;32452;51.382;-0.002;2023-04-29T09:23:13;9.05;;;5.88;;
46719;SDS011;32452;51.382;-0.002;2023-04-29T09:25:59;9.77;;;5.15;;
46719;SDS011;32452;51.382;-0.002;2023-04-29T09:28:45;9.93;;;5.25;;
46719;SDS011;32452;51.382;-0.002;2023-04-29T09:31:32;9.63;;;5.03;;
46719;SDS011;32452;51.382;-0.002;2023-04-29T09:34:18;9.10;;;5.03;;
46719;SDS011;32452;51.382;-0.002;2023-04-29T09:37:23;8.65;;;4.88;;
46719;SDS011;32452;51.382;-0.002;2023-04-29T09:40:32;8.02;;;5.30;;
46719;SDS011;32452;51.382;-0.002;2023-04-29T09:43:34;10.77;;;5.97;;
46719;SDS011;32452;51.382;-0.002;2023-04-29T09:46:21;11.68;;;5.72;;
46719;SDS011;32452;51.382;-0.002;2023-04-29T09:49:26;13.40;;;6.13;;
46719;SDS011;32452;51.382;-0.002;2023-04-29T09:52:17;8.45;;;5.03;;
46719;SDS011;32452;51.382;-0.002;2023-04-29T09:55:04;10.52;;;4.72;;
46719;SDS011;32452;51.382;-0.002;2023-04-29T09:57:51;7.45;;;4.55;;
46719;SDS011;32452;51.382;-0.002;2023-04-29T10:00:38;8.05;;;4.57;;
46719;SDS011;32452;51.382;-0.002;2023-04-29T10:03:24;9.05;;;5.20;;
46719;SDS011;32452;51.382;-0.002;2023-04-29T10:06:16;9.90;;;5.70;;
46719;SDS011;32452;51.382;-0.002;2023-04-29T10:09:03;10.00;;;5.32;;
46719;SDS011;32452;51.382;-0.002;2023-04-29T10:11:51;11.10;;;5.95;;
46719;SDS011;32452;51.382;-0.002;2023-04-29T10:14:41;12.15;;;5.88;;
46719;SDS011;32452;51.382;-0.002;2023-04-29T10:17:41;9.00;;;4.82;;
46719;SDS011;32452;51.382;-0.002;2023-04-29T10:20:30;10.05;;;5.50;;
46719;SDS011;32452;51.382;-0.002;2023-04-29T10:23:17;8.82;;;5.05;;
46719;SDS011;32452;51.382;-0.002;2023-04-29T10:26:05;6.57;;;4.30;;
46719;SDS011;32452;51.382;-0.002;2023-04-29T10:28:54;9.50;;;4.43;;
46719;SDS011;32452;51.382;-0.002;2023-04-29T10:31:41;8.02;;;4.47;;
46719;SDS011;32452;51.382;-0.002;2023-04-29T10:34:28;7.07;;;4.65;;
46719;SDS011;32452;51.382;-0.002;2023-04-29T10:37:16;6.63;;;3.85;;
46719;SDS011;32452;51.382;-0.002;2023-04-29T10:40:38;8.07;;;4.72;;
46719;SDS011;32452;51.382;-0.002;2023-04-29T10:43:22;8.20;;;4.60;;
46719;SDS011;32452;51.382;-0.002;2023-04-29T10:46:17;8.43;;;5.05;;
46719;SDS011;32452;51.382;-0.002;2023-04-29T10:49:12;6.80;;;4.03;;
46719;SDS011;32452;51.382;-0.002;2023-04-29T10:52:02;8.27;;;4.57;;
46719;SDS011;32452;51.382;-0.002;2023-04-29T10:55:09;8.57;;;5.00;;
46719;SDS011;32452;51.382;-0.002;2023-04-29T10:57:56;9.35;;;5.18;;
46719;SDS011;32452;51.382;-0.002;2023-04-29T11:00:42;7.35;;;4.50;;
46719;SDS011;32452;51.382;-0.002;2023-04-29T11:03:48;7.88;;;5.30;;
46719;SDS011;32452;51.382;-0.002;2023-04-29T11:06:53;7.63;;;4.75;;
46719;SDS011;32452;51.382;-0.002;2023-04-29T11:09:43;7.80;;;4.65;;
46719;SDS011;32452;51.382;-0.002;2023-04-29T11:12:36;6.80;;;4.25;;
46719;SDS011;32452;51.382;-0.002;2023-04-29T11:15:22;6.78;;;4.32;;
46719;SDS011;32452;51.382;-0.002;2023-04-29T11:18:09;8.40;;;5.13;;
46719;SDS011;32452;51.382;-0.002;2023-04-29T11:21:15;8.52;;;5.00;;
46719;SDS011;32452;51.382;-0.002;2023-04-29T11:24:01;8.48;;;5.05;;
46719;SDS011;32452;51.382;-0.002;2023-04-29T11:26:54;11.02;;;5.13;;
46719;SDS011;32452;51.382;-0.002;2023-04-29T11:29:56;7.90;;;4.95;;
46719;SDS011;32452;51.382;-0.002;2023-04-29T11:32:43;7.63;;;4.35;;
46719;SDS011;32452;51.382;-0.002;2023-04-29T11:35:29;8.40;;;4.10;;
46719;SDS011;32452;51.382;-0.002;2023-04-29T11:38:15;7.93;;;4.10;;
46719;SDS011;32452;51.382;-0.002;2023-04-29T11:41:09;8.32;;;4.38;;
46719;SDS011;32452;51.382;-0.002;2023-04-29T11:43:57;7.30;;;4.35;;
46719;SDS011;32452;51.382;-0.002;2023-04-29T11:49:35;6.40;;;3.53;;
46719;SDS011;32452;51.382;-0.002;2023-04-29T11:52:35;5.82;;;3.80;;
46719;SDS011;32452;51.382;-0.002;2023-04-29T11:55:36;9.15;;;4.65;;
46719;SDS011;32452;51.382;-0.002;2023-04-29T11:58:23;7.75;;;5.03;;
46719;SDS011;32452;51.382;-0.002;2023-04-29T12:01:10;6.93;;;4.55;;
46719;SDS011;32452;51.382;-0.002;2023-04-29T12:03:57;7.32;;;4.68;;
46719;SDS011;32452;51.382;-0.002;2023-04-29T12:06:55;10.52;;;4.80;;
46719;SDS011;32452;51.382;-0.002;2023-04-29T12:09:45;6.75;;;4.35;;
46719;SDS011;32452;51.382;-0.002;2023-04-29T12:12:39;8.90;;;5.03;;
46719;SDS011;32452;51.382;-0.002;2023-04-29T12:15:31;6.68;;;4.45;;
46719;SDS011;32452;51.382;-0.002;2023-04-29T12:18:18;10.60;;;4.63;;
46719;SDS011;32452;51.382;-0.002;2023-04-29T12:21:09;8.32;;;5.00;;
46719;SDS011;32452;51.382;-0.002;2023-04-29T12:23:57;8.75;;;4.55;;
46719;SDS011;32452;51.382;-0.002;2023-04-29T12:26:45;8.02;;;4.57;;
46719;SDS011;32452;51.382;-0.002;2023-04-29T12:29:37;8.40;;;4.38;;
46719;SDS011;32452;51.382;-0.002;2023-04-29T12:32:27;8.68;;;4.70;;
46719;SDS011;32452;51.382;-0.002;2023-04-29T12:35:14;10.07;;;5.22;;
46719;SDS011;32452;51.382;-0.002;2023-04-29T12:38:01;8.38;;;4.95;;
46719;SDS011;32452;51.382;-0.002;2023-04-29T12:40:47;8.68;;;4.80;;
46719;SDS011;32452;51.382;-0.002;2023-04-29T12:43:33;9.73;;;4.30;;
46719;SDS011;32452;51.382;-0.002;2023-04-29T12:46:21;7.53;;;4.65;;
46719;SDS011;32452;51.382;-0.002;2023-04-29T12:49:07;8.15;;;4.30;;
46719;SDS011;32452;51.382;-0.002;2023-04-29T12:51:53;8.85;;;4.00;;
46719;SDS011;32452;51.382;-0.002;2023-04-29T12:54:39;9.60;;;4.53;;
46719;SDS011;32452;51.382;-0.002;2023-04-29T12:57:26;7.32;;;4.97;;
46719;SDS011;32452;51.382;-0.002;2023-04-29T13:00:12;9.20;;;4.45;;
46719;SDS011;32452;51.382;-0.002;2023-04-29T13:02:59;8.20;;;4.97;;
46719;SDS011;32452;51.382;-0.002;2023-04-29T13:05:46;7.25;;;4.20;;
46719;SDS011;32452;51.382;-0.002;2023-04-29T13:08:36;7.80;;;4.50;;
46719;SDS011;32452;51.382;-0.002;2023-04-29T13:11:21;8.15;;;4.80;;
46719;SDS011;32452;51.382;-0.002;2023-04-29T13:14:08;19.48;;;13.95;;
46719;SDS011;32452;51.382;-0.002;2023-04-29T13:16:55;12.57;;;5.63;;
46719;SDS011;32452;51.382;-0.002;2023-04-29T13:19:42;10.75;;;5.68;;
46719;SDS011;32452;51.382;-0.002;2023-04-29T13:22:35;7.18;;;4.43;;
46719;SDS011;32452;51.382;-0.002;2023-04-29T13:25:23;10.20;;;4.75;;
46719;SDS011;32452;51.382;-0.002;2023-04-29T13:28:08;8.82;;;4.72;;
46719;SDS011;32452;51.382;-0.002;2023-04-29T13:30:54;9.10;;;5.55;;
46719;SDS011;32452;51.382;-0.002;2023-04-29T13:33:41;10.00;;;5.30;;
46719;SDS011;32452;51.382;-0.002;2023-04-29T13:36:28;10.18;;;5.10;;
46719;SDS011;32452;51.382;-0.002;2023-04-29T13:39:14;10.05;;;5.72;;
46719;SDS011;32452;51.382;-0.002;2023-04-29T13:42:00;10.15;;;5.60;;
46719;SDS011;32452;51.382;-0.002;2023-04-29T13:44:48;9.50;;;5.18;;
46719;SDS011;32452;51.382;-0.002;2023-04-29T13:47:37;10.48;;;5.25;;
46719;SDS011;32452;51.382;-0.002;2023-04-29T13:50:43;10.77;;;5.18;;
46719;SDS011;32452;51.382;-0.002;2023-04-29T13:53:31;10.98;;;5.38;;
46719;SDS011;32452;51.382;-0.002;2023-04-29T13:56:37;9.40;;;5.70;;
46719;SDS011;32452;51.382;-0.002;2023-04-29T13:59:26;9.40;;;4.40;;
46719;SDS011;32452;51.382;-0.002;2023-04-29T14:02:29;11.25;;;6.35;;
46719;SDS011;32452;51.382;-0.002;2023-04-29T14:05:16;9.82;;;5.00;;
46719;SDS011;32452;51.382;-0.002;2023-04-29T14:08:02;12.30;;;6.18;;
46719;SDS011;32452;51.382;-0.002;2023-04-29T14:10:47;11.05;;;5.15;;
46719;SDS011;32452;51.382;-0.002;2023-04-29T14:13:33;12.52;;;5.93;;
46719;SDS011;32452;51.382;-0.002;2023-04-29T14:16:19;10.38;;;5.57;;
46719;SDS011;32452;51.382;-0.002;2023-04-29T14:19:05;9.32;;;4.90;;
46719;SDS011;32452;51.382;-0.002;2023-04-29T14:21:51;10.80;;;5.53;;
46719;SDS011;32452;51.382;-0.002;2023-04-29T14:24:37;9.98;;;5.43;;
46719;SDS011;32452;51.382;-0.002;2023-04-29T14:27:23;11.82;;;5.68;;
46719;SDS011;32452;51.382;-0.002;2023-04-29T14:30:09;11.18;;;6.45;;
46719;SDS011;32452;51.382;-0.002;2023-04-29T14:32:55;12.45;;;6.03;;
46719;SDS011;32452;51.382;-0.002;2023-04-29T14:35:41;9.75;;;4.95;;
46719;SDS011;32452;51.382;-0.002;2023-04-29T14:38:27;12.07;;;7.20;;
46719;SDS011;32452;51.382;-0.002;2023-04-29T14:41:12;12.13;;;6.78;;
46719;SDS011;32452;51.382;-0.002;2023-04-29T14:43:58;13.60;;;7.15;;
46719;SDS011;32452;51.382;-0.002;2023-04-29T14:46:43;11.15;;;5.95;;
46719;SDS011;32452;51.382;-0.002;2023-04-29T14:49:29;12.27;;;6.38;;
46719;SDS011;32452;51.382;-0.002;2023-04-29T14:52:15;12.45;;;6.55;;
46719;SDS011;32452;51.382;-0.002;2023-04-29T14:55:01;10.68;;;5.53;;
46719;SDS011;32452;51.382;-0.002;2023-04-29T14:57:47;10.07;;;5.18;;
46719;SDS011;32452;51.382;-0.002;2023-04-29T15:00:33;11.15;;;6.03;;
46719;SDS011;32452;51.382;-0.002;2023-04-29T15:03:18;11.05;;;5.35;;
46719;SDS011;32452;51.382;-0.002;2023-04-29T15:06:07;11.10;;;5.82;;
46719;SDS011;32452;51.382;-0.002;2023-04-29T15:08:53;11.35;;;6.95;;
46719;SDS011;32452;51.382;-0.002;2023-04-29T15:11:39;14.65;;;6.38;;
46719;SDS011;32452;51.382;-0.002;2023-04-29T15:14:24;12.00;;;5.93;;
46719;SDS011;32452;51.382;-0.002;2023-04-29T15:17:10;10.73;;;6.10;;
46719;SDS011;32452;51.382;-0.002;2023-04-29T15:19:56;14.40;;;7.35;;
46719;SDS011;32452;51.382;-0.002;2023-04-29T15:22:41;15.50;;;6.85;;
46719;SDS011;32452;51.382;-0.002;2023-04-29T15:25:27;12.23;;;6.78;;
46719;SDS011;32452;51.382;-0.002;2023-04-29T15:28:13;12.52;;;6.55;;
46719;SDS011;32452;51.382;-0.002;2023-04-29T15:30:58;14.73;;;6.72;;
46719;SDS011;32452;51.382;-0.002;2023-04-29T15:33:46;14.45;;;6.65;;
46719;SDS011;32452;51.382;-0.002;2023-04-29T15:36:32;12.95;;;6.28;;
46719;SDS011;32452;51.382;-0.002;2023-04-29T15:39:18;12.90;;;6.50;;
46719;SDS011;32452;51.382;-0.002;2023-04-29T15:42:04;14.18;;;6.25;;
46719;SDS011;32452;51.382;-0.002;2023-04-29T15:44:49;11.95;;;6.60;;
46719;SDS011;32452;51.382;-0.002;2023-04-29T15:47:35;12.57;;;6.00;;
46719;SDS011;32452;51.382;-0.002;2023-04-29T15:50:20;9.77;;;5.05;;
46719;SDS011;32452;51.382;-0.002;2023-04-29T15:53:06;10.00;;;5.30;;
46719;SDS011;32452;51.382;-0.002;2023-04-29T15:55:52;11.40;;;5.70;;
46719;SDS011;32452;51.382;-0.002;2023-04-29T15:58:38;9.85;;;5.10;;
46719;SDS011;32452;51.382;-0.002;2023-04-29T16:01:23;11.13;;;5.72;;
46719;SDS011;32452;51.382;-0.002;2023-04-29T16:04:10;10.88;;;5.30;;
46719;SDS011;32452;51.382;-0.002;2023-04-29T16:06:56;10.95;;;5.00;;
46719;SDS011;32452;51.382;-0.002;2023-04-29T16:09:41;14.48;;;6.55;;
46719;SDS011;32452;51.382;-0.002;2023-04-29T16:12:27;10.50;;;4.95;;
46719;SDS011;32452;51.382;-0.002;2023-04-29T16:15:13;9.75;;;5.55;;
46719;SDS011;32452;51.382;-0.002;2023-04-29T16:17:58;12.05;;;5.75;;
46719;SDS011;32452;51.382;-0.002;2023-04-29T16:20:45;11.57;;;5.57;;
46719;SDS011;32452;51.382;-0.002;2023-04-29T16:23:31;11.25;;;6.18;;
46719;SDS011;32452;51.382;-0.002;2023-04-29T16:26:29;11.55;;;5.40;;
46719;SDS011;32452;51.382;-0.002;2023-04-29T16:29:15;13.52;;;6.53;;
46719;SDS011;32452;51.382;-0.002;2023-04-29T16:32:02;10.35;;;5.43;;
46719;SDS011;32452;51.382;-0.002;2023-04-29T16:34:52;9.80;;;5.85;;
46719;SDS011;32452;51.382;-0.002;2023-04-29T16:37:38;14.02;;;6.15;;
46719;SDS011;32452;51.382;-0.002;2023-04-29T16:40:25;12.75;;;6.00;;
46719;SDS011;32452;51.382;-0.002;2023-04-29T16:43:11;13.27;;;6.70;;
46719;SDS011;32452;51.382;-0.002;2023-04-29T16:45:59;14.65;;;5.78;;
46719;SDS011;32452;51.382;-0.002;2023-04-29T16:48:44;12.25;;;5.40;;
46719;SDS011;32452;51.382;-0.002;2023-04-29T16:51:30;11.98;;;5.63;;
46719;SDS011;32452;51.382;-0.002;2023-04-29T16:54:17;10.00;;;5.50;;
46719;SDS011;32452;51.382;-0.002;2023-04-29T16:57:02;12.05;;;5.88;;